createdAt,value
2023-02-27T00:00:44.258Z,6.50
2023-02-27T00:03:48.373Z,5.53
2023-02-27T00:06:52.462Z,5.80
2023-02-27T00:09:56.856Z,7.07
2023-02-27T00:13:01.016Z,8.05
2023-02-27T00:16:05.771Z,4.68
2023-02-27T00:19:09.522Z,7.15
2023-02-27T00:22:13.576Z,5.55
2023-02-27T00:25:18.227Z,7.30
2023-02-27T00:28:22.715Z,5.68
2023-02-27T00:31:27.042Z,5.32
2023-02-27T00:34:31.482Z,6.20
2023-02-27T00:37:35.671Z,5.13
2023-02-27T00:40:40.234Z,6.95
2023-02-27T00:43:45.172Z,7.60
2023-02-27T00:46:49.252Z,6.07
2023-02-27T00:49:53.261Z,5.68
2023-02-27T00:52:57.720Z,7.30
2023-02-27T00:56:01.928Z,5.95
2023-02-27T00:59:05.899Z,6.07
2023-02-27T01:02:10.208Z,7.85
2023-02-27T01:05:14.974Z,5.50
2023-02-27T01:08:20.176Z,5.63
2023-02-27T01:11:24.999Z,5.72
2023-02-27T01:14:29.595Z,6.07
2023-02-27T01:17:33.724Z,6.13
2023-02-27T01:20:37.753Z,8.20
2023-02-27T01:23:41.866Z,6.68
2023-02-27T01:26:47.555Z,7.35
2023-02-27T01:29:51.624Z,6.63
2023-02-27T01:32:55.729Z,8.27
2023-02-27T01:35:59.404Z,5.75
2023-02-27T01:39:03.750Z,5.95
2023-02-27T01:42:20.234Z,6.18
2023-02-27T01:45:30.702Z,6.35
2023-02-27T01:48:38.752Z,6.10
2023-02-27T01:51:54.797Z,5.35
2023-02-27T01:54:58.980Z,5.28
2023-02-27T01:58:05.817Z,6.05
2023-02-27T02:01:10.286Z,6.85
2023-02-27T02:04:27.774Z,6.95
2023-02-27T02:07:33.116Z,6.88
2023-02-27T02:10:39.492Z,7.57
2023-02-27T02:13:44.028Z,5.47
2023-02-27T02:17:13.016Z,7.32
2023-02-27T02:20:35.177Z,6.85
2023-02-27T02:24:11.353Z,4.43
2023-02-27T02:27:43.803Z,5.53
2023-02-27T02:31:23.253Z,5.78
2023-02-27T02:34:49.395Z,7.63
2023-02-27T02:38:23.897Z,7.75
2023-02-27T02:41:40.500Z,7.22
2023-02-27T02:44:47.403Z,7.38
2023-02-27T02:48:10.558Z,8.57
2023-02-27T02:51:34.707Z,6.18
2023-02-27T02:54:43.488Z,4.25
2023-02-27T02:58:02.438Z,5.68
2023-02-27T03:01:20.327Z,6.93
2023-02-27T03:04:31.430Z,4.60
2023-02-27T03:08:02.859Z,5.90
2023-02-27T03:11:07.174Z,5.80
2023-02-27T03:14:20.598Z,4.97
2023-02-27T03:17:33.456Z,5.75
2023-02-27T03:20:42.829Z,7.30
2023-02-27T03:23:48.650Z,6.80
2023-02-27T03:26:57.158Z,6.45
2023-02-27T03:30:13.946Z,6.03
2023-02-27T03:33:24.095Z,6.65
2023-02-27T03:37:00.765Z,5.03
2023-02-27T03:40:15.768Z,7.00
2023-02-27T03:43:32.927Z,5.38
2023-02-27T03:46:37.270Z,6.00
2023-02-27T03:49:41.066Z,5.28
2023-02-27T03:52:45.989Z,7.22
2023-02-27T03:55:52.182Z,6.82
2023-02-27T03:58:56.314Z,7.47
2023-02-27T04:02:02.716Z,6.47
2023-02-27T04:05:07.132Z,4.63
2023-02-27T04:08:33.236Z,6.47
2023-02-27T04:11:46.167Z,5.50
2023-02-27T04:15:03.856Z,5.38
2023-02-27T04:18:18.748Z,5.18
2023-02-27T04:21:44.324Z,6.25
2023-02-27T04:25:04.797Z,5.30
2023-02-27T04:28:17.513Z,7.18
2023-02-27T04:31:32.088Z,6.57
2023-02-27T04:34:42.320Z,6.75
2023-02-27T04:37:54.562Z,6.15
2023-02-27T04:41:07.509Z,6.68
2023-02-27T04:44:14.688Z,5.47
2023-02-27T04:47:20.872Z,6.85
2023-02-27T04:50:30.784Z,4.55
2023-02-27T04:53:42.858Z,4.00
2023-02-27T04:56:56.840Z,5.47
2023-02-27T05:00:32.196Z,5.75
2023-02-27T05:03:49.101Z,6.45
2023-02-27T05:07:02.079Z,7.63
2023-02-27T05:10:32.347Z,5.40
2023-02-27T05:14:01.762Z,6.88
2023-02-27T05:17:11.496Z,6.82
2023-02-27T05:20:17.226Z,5.65
2023-02-27T05:23:30.411Z,5.90
2023-02-27T05:27:17.622Z,4.85
2023-02-27T05:30:37.964Z,5.07
2023-02-27T05:33:51.644Z,5.15
2023-02-27T05:37:03.293Z,6.82
2023-02-27T05:40:10.796Z,8.38
2023-02-27T05:43:26.684Z,5.68
2023-02-27T05:46:35.971Z,10.45
2023-02-27T05:50:03.316Z,6.47
2023-02-27T05:53:10.781Z,6.50
2023-02-27T05:56:18.110Z,8.25
2023-02-27T05:59:34.131Z,9.57
2023-02-27T06:02:38.895Z,7.55
2023-02-27T06:05:43.675Z,10.38
2023-02-27T06:08:48.188Z,7.25
2023-02-27T06:11:52.141Z,8.10
2023-02-27T06:14:56.093Z,6.80
2023-02-27T06:18:00.263Z,8.45
2023-02-27T06:21:04.986Z,7.47
2023-02-27T06:24:09.436Z,6.88
2023-02-27T06:27:13.892Z,8.93
2023-02-27T06:30:18.350Z,9.60
2023-02-27T06:33:22.150Z,8.15
2023-02-27T06:36:26.625Z,9.25
2023-02-27T06:39:31.180Z,8.35
2023-02-27T06:42:35.370Z,10.45
2023-02-27T06:45:39.570Z,7.90
2023-02-27T06:48:43.507Z,9.60
2023-02-27T06:51:47.756Z,12.18
2023-02-27T06:54:51.755Z,9.15
2023-02-27T06:57:55.756Z,6.90
2023-02-27T07:01:00.883Z,10.35
2023-02-27T07:04:05.128Z,7.55
2023-02-27T07:07:32.361Z,9.48
2023-02-27T07:10:34.457Z,7.25
2023-02-27T07:13:38.518Z,11.07
2023-02-27T07:16:42.867Z,6.57
2023-02-27T07:19:46.623Z,9.40
2023-02-27T07:22:50.930Z,10.85
2023-02-27T07:25:54.789Z,8.05
2023-02-27T07:28:58.940Z,5.72
2023-02-27T07:32:03.363Z,5.40
2023-02-27T07:35:08.549Z,6.00
2023-02-27T07:38:12.818Z,8.15
2023-02-27T07:41:29.940Z,7.93
2023-02-27T07:44:34.009Z,10.95
2023-02-27T07:47:38.231Z,7.07
2023-02-27T07:50:42.257Z,12.63
2023-02-27T07:53:46.832Z,8.95
2023-02-27T07:56:50.993Z,5.28
2023-02-27T07:59:55.409Z,10.45
2023-02-27T08:03:00.416Z,8.73
2023-02-27T08:06:04.917Z,7.53
2023-02-27T08:09:10.754Z,8.77
2023-02-27T08:12:15.132Z,9.50
2023-02-27T08:15:19.583Z,10.60
2023-02-27T08:18:23.793Z,8.15
2023-02-27T08:21:28.727Z,6.68
2023-02-27T08:24:32.731Z,6.68
2023-02-27T08:27:38.284Z,9.52
2023-02-27T08:30:42.416Z,7.32
2023-02-27T08:33:46.456Z,8.98
2023-02-27T08:36:50.402Z,11.93
2023-02-27T08:39:54.639Z,8.48
2023-02-27T08:42:59.008Z,9.60
2023-02-27T08:46:03.227Z,9.32
2023-02-27T08:49:07.464Z,5.80
2023-02-27T08:52:11.469Z,6.97
2023-02-27T08:55:15.863Z,6.45
2023-02-27T08:58:20.200Z,6.55
2023-02-27T09:01:28.514Z,9.35
2023-02-27T09:04:32.856Z,9.02
2023-02-27T09:07:36.992Z,10.65
2023-02-27T09:10:41.783Z,9.48
2023-02-27T09:13:45.753Z,6.00
2023-02-27T09:16:50.072Z,8.25
2023-02-27T09:19:57.019Z,11.98
2023-02-27T09:23:02.202Z,10.10
2023-02-27T09:26:06.831Z,6.78
2023-02-27T09:29:10.838Z,7.85
2023-02-27T09:32:15.080Z,9.13
2023-02-27T09:35:22.935Z,8.35
2023-02-27T09:38:27.421Z,6.32
2023-02-27T09:41:50.419Z,8.07
2023-02-27T09:45:02.641Z,7.38
2023-02-27T09:48:32.324Z,6.93
2023-02-27T09:51:36.474Z,5.93
2023-02-27T09:54:41.842Z,8.05
2023-02-27T09:57:54.893Z,11.82
2023-02-27T10:01:25.207Z,9.88
2023-02-27T10:04:48.198Z,8.25
2023-02-27T10:08:23.220Z,7.10
2023-02-27T10:11:43.607Z,6.72
2023-02-27T10:14:56.673Z,7.75
2023-02-27T10:18:26.092Z,6.97
2023-02-27T10:21:41.180Z,7.47
2023-02-27T10:24:51.290Z,7.22
2023-02-27T10:28:00.154Z,7.28
2023-02-27T10:31:15.789Z,7.03
2023-02-27T10:34:22.568Z,9.77
2023-02-27T10:37:27.048Z,7.90
2023-02-27T10:40:31.227Z,9.23
2023-02-27T10:43:35.349Z,8.95
2023-02-27T10:46:40.740Z,6.18
2023-02-27T10:49:45.169Z,10.90
2023-02-27T10:53:02.461Z,5.00
2023-02-27T10:56:14.242Z,12.90
2023-02-27T10:59:25.458Z,7.20
2023-02-27T11:02:53.344Z,8.65
2023-02-27T11:06:22.594Z,7.32
2023-02-27T11:09:34.103Z,7.50
2023-02-27T11:12:39.563Z,4.93
2023-02-27T11:15:43.693Z,7.63
2023-02-27T11:18:50.127Z,8.50
2023-02-27T11:22:23.587Z,11.52
2023-02-27T11:25:27.791Z,8.15
2023-02-27T11:28:31.746Z,6.18
2023-02-27T11:31:37.794Z,6.10
2023-02-27T11:34:52.827Z,5.60
2023-02-27T11:38:00.657Z,8.30
2023-02-27T11:41:06.672Z,4.75
2023-02-27T11:44:17.979Z,10.93
2023-02-27T11:47:33.433Z,9.43
2023-02-27T11:51:11.150Z,7.30
2023-02-27T11:54:32.321Z,5.82
2023-02-27T11:57:41.047Z,9.65
2023-02-27T12:00:56.647Z,7.47
2023-02-27T12:04:16.638Z,6.68
2023-02-27T12:07:33.139Z,7.43
2023-02-27T12:10:52.061Z,11.10
2023-02-27T12:14:04.127Z,7.22
2023-02-27T12:17:44.976Z,6.63
2023-02-27T12:21:01.320Z,5.88
2023-02-27T12:24:25.793Z,6.25
2023-02-27T12:28:00.926Z,7.03
2023-02-27T12:31:35.649Z,6.63
2023-02-27T12:34:48.263Z,4.63
2023-02-27T12:37:53.094Z,6.33
2023-02-27T12:41:06.365Z,5.53
2023-02-27T12:44:24.259Z,8.27
2023-02-27T12:47:51.679Z,8.40
2023-02-27T12:51:21.681Z,6.93
2023-02-27T12:54:54.185Z,10.02
2023-02-27T12:58:15.040Z,8.15
2023-02-27T13:01:37.413Z,7.97
2023-02-27T13:05:36.136Z,6.25
2023-02-27T13:09:09.643Z,7.95
2023-02-27T13:16:00.724Z,6.88
2023-02-27T13:19:17.346Z,11.07
2023-02-27T13:22:47.868Z,6.47
2023-02-27T13:25:53.896Z,9.23
2023-02-27T13:29:00.782Z,6.38
2023-02-27T13:32:12.775Z,3.53
2023-02-27T13:35:41.748Z,5.97
2023-02-27T13:38:48.579Z,4.50
2023-02-27T13:41:52.766Z,9.27
2023-02-27T13:45:04.664Z,6.35
2023-02-27T13:48:33.558Z,4.10
2023-02-27T13:51:46.774Z,4.07
2023-02-27T13:54:51.892Z,4.82
2023-02-27T13:57:59.593Z,4.68
2023-02-27T14:01:05.467Z,7.30
2023-02-27T14:04:18.261Z,8.77
2023-02-27T14:07:25.123Z,5.10
2023-02-27T14:10:31.060Z,6.38
2023-02-27T14:13:50.117Z,5.35
2023-02-27T14:16:55.925Z,4.63
2023-02-27T14:20:00.258Z,5.40
2023-02-27T14:23:22.702Z,5.72
2023-02-27T14:26:28.342Z,5.45
2023-02-27T14:29:35.053Z,4.47
2023-02-27T14:32:39.247Z,5.38
2023-02-27T14:35:46.539Z,5.43
2023-02-27T14:38:53.066Z,8.30
2023-02-27T14:42:35.933Z,5.00
2023-02-27T14:45:40.275Z,4.75
2023-02-27T14:48:45.263Z,6.97
2023-02-27T14:51:50.471Z,4.32
2023-02-27T14:55:27.864Z,4.40
2023-02-27T14:58:31.855Z,5.53
2023-02-27T15:01:36.614Z,7.03
2023-02-27T15:04:40.488Z,6.25
2023-02-27T15:07:54.072Z,4.75
2023-02-27T15:10:59.619Z,5.45
2023-02-27T15:14:06.497Z,8.10
2023-02-27T15:17:25.783Z,3.15
2023-02-27T15:20:32.905Z,6.38
2023-02-27T15:23:37.018Z,7.85
2023-02-27T15:26:42.479Z,5.15
2023-02-27T15:29:58.801Z,3.28
2023-02-27T15:33:02.973Z,4.00
2023-02-27T15:36:07.855Z,6.70
2023-02-27T15:39:11.637Z,6.22
2023-02-27T15:42:15.913Z,4.10
2023-02-27T15:45:22.418Z,4.13
2023-02-27T15:48:26.620Z,7.53
2023-02-27T15:51:30.564Z,7.38
2023-02-27T15:54:35.784Z,5.13
2023-02-27T15:57:42.086Z,6.97
2023-02-27T16:00:47.748Z,8.55
2023-02-27T16:03:57.896Z,6.68
2023-02-27T16:07:05.912Z,7.38
2023-02-27T16:10:22.625Z,5.38
2023-02-27T16:13:41.879Z,2.90
2023-02-27T16:16:54.888Z,6.38
2023-02-27T16:20:02.246Z,4.00
2023-02-27T16:23:28.405Z,5.18
2023-02-27T16:26:36.782Z,4.78
2023-02-27T16:29:44.891Z,4.78
2023-02-27T16:32:55.760Z,4.60
2023-02-27T16:36:18.662Z,6.82
2023-02-27T16:39:23.486Z,2.90
2023-02-27T16:42:27.628Z,5.72
2023-02-27T16:45:31.985Z,5.97
2023-02-27T16:48:36.554Z,5.47
2023-02-27T16:51:40.629Z,3.60
2023-02-27T16:54:44.696Z,6.18
2023-02-27T16:57:49.228Z,5.18
2023-02-27T17:00:53.481Z,5.03
2023-02-27T17:03:57.485Z,4.68
2023-02-27T17:07:03.656Z,5.57
2023-02-27T17:10:11.381Z,5.30
2023-02-27T17:13:15.684Z,5.38
2023-02-27T17:16:19.853Z,8.07
2023-02-27T17:19:24.329Z,5.50
2023-02-27T17:22:28.409Z,8.00
2023-02-27T17:25:32.252Z,6.35
2023-02-27T17:28:35.980Z,4.78
2023-02-27T17:31:41.650Z,9.35
2023-02-27T17:34:46.098Z,5.20
2023-02-27T17:37:50.339Z,5.80
2023-02-27T17:40:54.437Z,4.95
2023-02-27T17:43:59.609Z,3.83
2023-02-27T17:47:03.555Z,6.40
2023-02-27T17:50:08.183Z,3.75
2023-02-27T17:53:12.855Z,7.70
2023-02-27T17:56:17.008Z,6.97
2023-02-27T17:59:21.060Z,6.13
2023-02-27T18:02:25.031Z,4.85
2023-02-27T18:05:29.218Z,4.95
2023-02-27T18:08:34.110Z,7.97
2023-02-27T18:11:38.561Z,7.22
2023-02-27T18:14:42.895Z,5.22
2023-02-27T18:17:46.802Z,7.25
2023-02-27T18:21:01.933Z,6.05
2023-02-27T18:24:06.313Z,6.72
2023-02-27T18:27:10.812Z,13.20
2023-02-27T18:30:16.046Z,12.50
2023-02-27T18:33:20.327Z,10.23
2023-02-27T18:36:24.802Z,12.48
2023-02-27T18:39:29.219Z,8.02
2023-02-27T18:42:34.898Z,7.75
2023-02-27T18:45:39.562Z,7.65
2023-02-27T18:48:45.042Z,6.78
2023-02-27T18:51:49.530Z,6.60
2023-02-27T18:54:53.688Z,8.70
2023-02-27T18:57:58.005Z,13.60
2023-02-27T19:01:04.075Z,6.80
2023-02-27T19:04:09.412Z,9.70
2023-02-27T19:07:14.807Z,8.55
2023-02-27T19:10:19.084Z,7.97
2023-02-27T19:13:24.621Z,6.57
2023-02-27T19:16:29.203Z,8.07
2023-02-27T19:19:33.480Z,13.35
2023-02-27T19:22:37.411Z,16.88
2023-02-27T19:25:42.018Z,9.65
2023-02-27T19:28:46.313Z,13.52
2023-02-27T19:31:50.464Z,15.98
2023-02-27T19:34:54.174Z,16.42
2023-02-27T19:37:59.137Z,21.83
2023-02-27T19:41:06.036Z,19.52
2023-02-27T19:44:10.383Z,15.70
2023-02-27T19:47:14.745Z,15.15
2023-02-27T19:50:19.097Z,13.65
2023-02-27T19:53:23.148Z,15.60
2023-02-27T19:56:28.494Z,15.73
2023-02-27T19:59:33.023Z,14.93
2023-02-27T20:02:40.298Z,10.57
2023-02-27T20:05:45.380Z,17.63
2023-02-27T20:08:50.871Z,19.33
2023-02-27T20:11:59.044Z,13.77
2023-02-27T20:15:08.752Z,10.07
2023-02-27T20:18:13.115Z,10.68
2023-02-27T20:21:24.390Z,9.02
2023-02-27T20:24:28.882Z,11.07
2023-02-27T20:27:34.463Z,10.30
2023-02-27T20:30:39.376Z,11.40
2023-02-27T20:33:43.280Z,14.48
2023-02-27T20:36:52.350Z,15.80
2023-02-27T20:39:56.284Z,11.55
2023-02-27T20:43:00.764Z,9.18
2023-02-27T20:46:19.562Z,10.80
2023-02-27T20:49:23.431Z,10.80
2023-02-27T20:52:27.793Z,9.52
2023-02-27T20:55:32.230Z,14.85
2023-02-27T20:58:37.164Z,13.52
2023-02-27T21:01:42.724Z,11.13
2023-02-27T21:04:47.351Z,14.18
2023-02-27T21:07:51.608Z,12.68
2023-02-27T21:10:55.968Z,14.35
2023-02-27T21:14:06.137Z,13.25
2023-02-27T21:17:11.177Z,14.10
2023-02-27T21:20:15.139Z,11.80
2023-02-27T21:23:19.461Z,12.73
2023-02-27T21:26:25.294Z,11.30
2023-02-27T21:29:29.378Z,12.73
2023-02-27T21:32:33.658Z,11.82
2023-02-27T21:35:38.216Z,13.25
2023-02-27T21:38:42.772Z,12.65
2023-02-27T21:41:47.436Z,10.70
2023-02-27T21:44:51.205Z,10.60
2023-02-27T21:47:55.365Z,11.68
2023-02-27T21:51:00.509Z,12.50
2023-02-27T21:54:05.296Z,11.80
2023-02-27T21:57:09.902Z,9.10
2023-02-27T22:00:14.281Z,9.48
2023-02-27T22:03:18.332Z,7.45
2023-02-27T22:06:24.925Z,8.43
2023-02-27T22:09:29.065Z,9.05
2023-02-27T22:12:32.926Z,9.32
2023-02-27T22:15:36.687Z,9.45
2023-02-27T22:18:41.131Z,17.05
2023-02-27T22:21:46.048Z,10.23
2023-02-27T22:24:50.176Z,9.30
2023-02-27T22:27:54.303Z,10.93
2023-02-27T22:31:07.700Z,7.47
2023-02-27T22:34:18.037Z,9.18
2023-02-27T22:37:23.360Z,7.95
2023-02-27T22:40:29.533Z,8.73
2023-02-27T22:43:34.781Z,6.90
2023-02-27T22:46:41.788Z,7.70
2023-02-27T22:49:45.959Z,10.07
2023-02-27T22:52:50.199Z,11.57
2023-02-27T22:55:56.129Z,8.15
2023-02-27T22:59:00.306Z,8.35
2023-02-27T23:02:06.149Z,7.60
2023-02-27T23:05:10.956Z,10.15
2023-02-27T23:08:17.024Z,7.63
2023-02-27T23:11:21.931Z,9.57
2023-02-27T23:14:26.413Z,7.72
2023-02-27T23:17:33.012Z,8.18
2023-02-27T23:20:38.430Z,11.70
2023-02-27T23:23:43.249Z,7.95
2023-02-27T23:26:49.586Z,8.82
2023-02-27T23:29:53.882Z,6.97
2023-02-27T23:32:58.472Z,8.63
2023-02-27T23:36:03.434Z,7.47
2023-02-27T23:39:08.182Z,8.18
2023-02-27T23:42:30.886Z,10.13
2023-02-27T23:45:35.434Z,9.05
2023-02-27T23:48:40.351Z,8.77
2023-02-27T23:51:44.721Z,10.70
2023-02-27T23:54:48.543Z,8.38
2023-02-27T23:57:54.360Z,7.97
